sensor_id;sensor_type;location;lat;lon;timestamp;P1;durP1;ratioP1;P2;durP2;ratioP2
44270;SDS011;29963;44.594;11.368;2024-01-11T00:00:28;38.53;;;27.48;;
44270;SDS011;29963;44.594;11.368;2024-01-11T00:02:54;39.97;;;26.63;;
44270;SDS011;29963;44.594;11.368;2024-01-11T00:05:22;37.33;;;25.88;;
44270;SDS011;29963;44.594;11.368;2024-01-11T00:07:48;39.78;;;25.95;;
44270;SDS011;29963;44.594;11.368;2024-01-11T00:10:15;34.08;;;26.10;;
44270;SDS011;29963;44.594;11.368;2024-01-11T00:12:41;37.25;;;27.60;;
44270;SDS011;29963;44.594;11.368;2024-01-11T00:15:06;40.83;;;26.92;;
44270;SDS011;29963;44.594;11.368;2024-01-11T00:17:32;38.90;;;26.33;;
44270;SDS011;29963;44.594;11.368;2024-01-11T00:19:58;43.78;;;25.65;;
44270;SDS011;29963;44.594;11.368;2024-01-11T00:22:24;42.70;;;26.10;;
44270;SDS011;29963;44.594;11.368;2024-01-11T00:24:49;39.78;;;27.90;;
44270;SDS011;29963;44.594;11.368;2024-01-11T00:27:15;39.25;;;25.98;;
44270;SDS011;29963;44.594;11.368;2024-01-11T00:29:40;36.05;;;26.10;;
44270;SDS011;29963;44.594;11.368;2024-01-11T00:32:06;37.22;;;26.02;;
44270;SDS011;29963;44.594;11.368;2024-01-11T00:34:31;43.15;;;26.02;;
44270;SDS011;29963;44.594;11.368;2024-01-11T00:36:57;47.03;;;26.10;;
44270;SDS011;29963;44.594;11.368;2024-01-11T00:39:23;38.40;;;26.70;;
44270;SDS011;29963;44.594;11.368;2024-01-11T00:41:49;39.75;;;26.40;;
44270;SDS011;29963;44.594;11.368;2024-01-11T00:44:16;34.22;;;25.45;;
44270;SDS011;29963;44.594;11.368;2024-01-11T00:46:41;36.63;;;27.10;;
44270;SDS011;29963;44.594;11.368;2024-01-11T00:49:07;35.35;;;26.77;;
44270;SDS011;29963;44.594;11.368;2024-01-11T00:51:33;37.67;;;26.63;;
44270;SDS011;29963;44.594;11.368;2024-01-11T00:54:17;34.80;;;24.90;;
44270;SDS011;29963;44.594;11.368;2024-01-11T00:56:42;40.55;;;26.33;;
44270;SDS011;29963;44.594;11.368;2024-01-11T00:59:08;36.60;;;26.25;;
44270;SDS011;29963;44.594;11.368;2024-01-11T01:01:33;43.65;;;28.45;;
44270;SDS011;29963;44.594;11.368;2024-01-11T01:03:59;38.38;;;28.80;;
44270;SDS011;29963;44.594;11.368;2024-01-11T01:06:25;40.38;;;27.05;;
44270;SDS011;29963;44.594;11.368;2024-01-11T01:08:50;39.22;;;26.95;;
44270;SDS011;29963;44.594;11.368;2024-01-11T01:11:16;39.67;;;26.77;;
44270;SDS011;29963;44.594;11.368;2024-01-11T01:13:41;40.28;;;27.58;;
44270;SDS011;29963;44.594;11.368;2024-01-11T01:16:07;33.92;;;23.92;;
44270;SDS011;29963;44.594;11.368;2024-01-11T01:18:32;36.90;;;27.30;;
44270;SDS011;29963;44.594;11.368;2024-01-11T01:20:58;36.53;;;25.98;;
44270;SDS011;29963;44.594;11.368;2024-01-11T01:23:24;36.10;;;26.38;;
44270;SDS011;29963;44.594;11.368;2024-01-11T01:25:49;41.42;;;27.95;;
44270;SDS011;29963;44.594;11.368;2024-01-11T01:28:15;40.40;;;27.88;;
44270;SDS011;29963;44.594;11.368;2024-01-11T01:30:40;40.47;;;27.73;;
44270;SDS011;29963;44.594;11.368;2024-01-11T01:33:06;39.20;;;25.45;;
44270;SDS011;29963;44.594;11.368;2024-01-11T01:35:32;44.13;;;26.45;;
44270;SDS011;29963;44.594;11.368;2024-01-11T01:37:59;41.75;;;27.65;;
44270;SDS011;29963;44.594;11.368;2024-01-11T01:40:25;37.15;;;26.90;;
44270;SDS011;29963;44.594;11.368;2024-01-11T01:42:50;40.58;;;26.00;;
44270;SDS011;29963;44.594;11.368;2024-01-11T01:45:23;44.03;;;26.85;;
44270;SDS011;29963;44.594;11.368;2024-01-11T01:47:49;45.90;;;29.73;;
44270;SDS011;29963;44.594;11.368;2024-01-11T01:50:15;41.35;;;25.75;;
44270;SDS011;29963;44.594;11.368;2024-01-11T01:52:41;38.20;;;26.85;;
44270;SDS011;29963;44.594;11.368;2024-01-11T01:55:09;37.58;;;25.30;;
44270;SDS011;29963;44.594;11.368;2024-01-11T01:57:36;36.17;;;25.90;;
44270;SDS011;29963;44.594;11.368;2024-01-11T02:00:05;37.88;;;27.33;;
44270;SDS011;29963;44.594;11.368;2024-01-11T02:02:31;41.30;;;27.13;;
44270;SDS011;29963;44.594;11.368;2024-01-11T02:04:59;41.53;;;26.17;;
44270;SDS011;29963;44.594;11.368;2024-01-11T02:07:25;38.75;;;26.27;;
44270;SDS011;29963;44.594;11.368;2024-01-11T02:09:51;39.92;;;25.42;;
44270;SDS011;29963;44.594;11.368;2024-01-11T02:12:17;36.25;;;26.42;;
44270;SDS011;29963;44.594;11.368;2024-01-11T02:14:43;47.88;;;27.70;;
44270;SDS011;29963;44.594;11.368;2024-01-11T02:17:09;43.55;;;27.00;;
44270;SDS011;29963;44.594;11.368;2024-01-11T02:19:34;34.97;;;27.17;;
44270;SDS011;29963;44.594;11.368;2024-01-11T02:22:05;37.90;;;27.45;;
44270;SDS011;29963;44.594;11.368;2024-01-11T02:24:37;36.13;;;24.83;;
44270;SDS011;29963;44.594;11.368;2024-01-11T02:27:03;38.20;;;26.05;;
44270;SDS011;29963;44.594;11.368;2024-01-11T02:29:30;37.65;;;25.65;;
44270;SDS011;29963;44.594;11.368;2024-01-11T02:31:56;33.13;;;24.63;;
44270;SDS011;29963;44.594;11.368;2024-01-11T02:34:23;33.85;;;23.50;;
44270;SDS011;29963;44.594;11.368;2024-01-11T02:36:51;34.45;;;25.00;;
44270;SDS011;29963;44.594;11.368;2024-01-11T02:39:16;37.03;;;24.35;;
44270;SDS011;29963;44.594;11.368;2024-01-11T02:41:44;36.97;;;25.13;;
44270;SDS011;29963;44.594;11.368;2024-01-11T02:44:12;34.88;;;26.15;;
44270;SDS011;29963;44.594;11.368;2024-01-11T02:46:38;35.35;;;24.30;;
44270;SDS011;29963;44.594;11.368;2024-01-11T02:49:03;38.88;;;24.70;;
44270;SDS011;29963;44.594;11.368;2024-01-11T02:51:29;37.88;;;24.70;;
44270;SDS011;29963;44.594;11.368;2024-01-11T02:53:54;34.92;;;23.35;;
44270;SDS011;29963;44.594;11.368;2024-01-11T02:56:20;33.67;;;23.42;;
44270;SDS011;29963;44.594;11.368;2024-01-11T02:58:45;36.38;;;22.80;;
44270;SDS011;29963;44.594;11.368;2024-01-11T03:01:11;37.45;;;24.40;;
44270;SDS011;29963;44.594;11.368;2024-01-11T03:03:37;31.45;;;23.77;;
44270;SDS011;29963;44.594;11.368;2024-01-11T03:06:02;35.10;;;24.65;;
44270;SDS011;29963;44.594;11.368;2024-01-11T03:08:29;30.63;;;22.75;;
44270;SDS011;29963;44.594;11.368;2024-01-11T03:10:54;39.15;;;25.33;;
44270;SDS011;29963;44.594;11.368;2024-01-11T03:13:23;34.63;;;22.73;;
44270;SDS011;29963;44.594;11.368;2024-01-11T03:15:49;31.17;;;23.15;;
44270;SDS011;29963;44.594;11.368;2024-01-11T03:18:14;31.63;;;21.95;;
44270;SDS011;29963;44.594;11.368;2024-01-11T03:20:40;33.20;;;23.10;;
44270;SDS011;29963;44.594;11.368;2024-01-11T03:23:08;34.15;;;23.42;;
44270;SDS011;29963;44.594;11.368;2024-01-11T03:25:34;30.00;;;22.88;;
44270;SDS011;29963;44.594;11.368;2024-01-11T03:28:00;32.85;;;23.73;;
44270;SDS011;29963;44.594;11.368;2024-01-11T03:30:25;34.75;;;23.00;;
44270;SDS011;29963;44.594;11.368;2024-01-11T03:32:51;31.13;;;21.98;;
44270;SDS011;29963;44.594;11.368;2024-01-11T03:35:17;32.70;;;23.25;;
44270;SDS011;29963;44.594;11.368;2024-01-11T03:37:44;35.08;;;22.70;;
44270;SDS011;29963;44.594;11.368;2024-01-11T03:40:10;35.92;;;23.40;;
44270;SDS011;29963;44.594;11.368;2024-01-11T03:42:36;35.75;;;22.55;;
44270;SDS011;29963;44.594;11.368;2024-01-11T03:45:03;32.30;;;22.65;;
44270;SDS011;29963;44.594;11.368;2024-01-11T03:47:29;34.58;;;24.88;;
44270;SDS011;29963;44.594;11.368;2024-01-11T03:49:55;32.80;;;23.73;;
44270;SDS011;29963;44.594;11.368;2024-01-11T03:52:20;33.50;;;23.25;;
44270;SDS011;29963;44.594;11.368;2024-01-11T03:54:46;31.67;;;23.60;;
44270;SDS011;29963;44.594;11.368;2024-01-11T03:57:12;34.95;;;23.40;;
44270;SDS011;29963;44.594;11.368;2024-01-11T03:59:37;32.40;;;22.38;;
44270;SDS011;29963;44.594;11.368;2024-01-11T04:02:03;34.13;;;24.25;;
44270;SDS011;29963;44.594;11.368;2024-01-11T04:04:28;34.25;;;22.70;;
44270;SDS011;29963;44.594;11.368;2024-01-11T04:06:54;32.20;;;23.60;;
44270;SDS011;29963;44.594;11.368;2024-01-11T04:09:20;33.45;;;22.65;;
44270;SDS011;29963;44.594;11.368;2024-01-11T04:11:45;31.13;;;21.63;;
44270;SDS011;29963;44.594;11.368;2024-01-11T04:14:11;39.38;;;22.90;;
44270;SDS011;29963;44.594;11.368;2024-01-11T04:16:40;33.42;;;23.75;;
44270;SDS011;29963;44.594;11.368;2024-01-11T04:19:06;32.38;;;22.75;;
44270;SDS011;29963;44.594;11.368;2024-01-11T04:21:32;33.38;;;23.17;;
44270;SDS011;29963;44.594;11.368;2024-01-11T04:23:58;35.10;;;23.92;;
44270;SDS011;29963;44.594;11.368;2024-01-11T04:26:24;29.80;;;21.35;;
44270;SDS011;29963;44.594;11.368;2024-01-11T04:28:50;36.30;;;23.38;;
44270;SDS011;29963;44.594;11.368;2024-01-11T04:31:16;29.88;;;22.60;;
44270;SDS011;29963;44.594;11.368;2024-01-11T04:33:42;32.85;;;21.88;;
44270;SDS011;29963;44.594;11.368;2024-01-11T04:36:10;30.98;;;22.80;;
44270;SDS011;29963;44.594;11.368;2024-01-11T04:38:35;37.67;;;23.30;;
44270;SDS011;29963;44.594;11.368;2024-01-11T04:41:14;33.80;;;23.08;;
44270;SDS011;29963;44.594;11.368;2024-01-11T04:43:40;32.05;;;22.70;;
44270;SDS011;29963;44.594;11.368;2024-01-11T04:48:38;31.75;;;22.88;;
44270;SDS011;29963;44.594;11.368;2024-01-11T04:51:04;32.72;;;24.15;;
44270;SDS011;29963;44.594;11.368;2024-01-11T04:53:29;36.22;;;24.80;;
44270;SDS011;29963;44.594;11.368;2024-01-11T04:55:55;34.22;;;24.33;;
44270;SDS011;29963;44.594;11.368;2024-01-11T04:58:21;34.17;;;23.65;;
44270;SDS011;29963;44.594;11.368;2024-01-11T05:00:46;36.13;;;23.85;;
44270;SDS011;29963;44.594;11.368;2024-01-11T05:03:12;34.00;;;24.65;;
44270;SDS011;29963;44.594;11.368;2024-01-11T05:05:37;36.10;;;25.13;;
44270;SDS011;29963;44.594;11.368;2024-01-11T05:08:03;31.13;;;21.73;;
44270;SDS011;29963;44.594;11.368;2024-01-11T05:10:29;32.30;;;24.48;;
44270;SDS011;29963;44.594;11.368;2024-01-11T05:12:54;33.92;;;21.63;;
44270;SDS011;29963;44.594;11.368;2024-01-11T05:15:20;35.42;;;22.40;;
44270;SDS011;29963;44.594;11.368;2024-01-11T05:17:48;36.90;;;24.60;;
44270;SDS011;29963;44.594;11.368;2024-01-11T05:20:14;29.10;;;22.15;;
44270;SDS011;29963;44.594;11.368;2024-01-11T05:22:40;31.45;;;22.33;;
44270;SDS011;29963;44.594;11.368;2024-01-11T05:25:05;27.98;;;22.02;;
44270;SDS011;29963;44.594;11.368;2024-01-11T05:27:31;33.95;;;23.15;;
44270;SDS011;29963;44.594;11.368;2024-01-11T05:29:57;32.47;;;23.10;;
44270;SDS011;29963;44.594;11.368;2024-01-11T05:32:22;29.45;;;21.27;;
44270;SDS011;29963;44.594;11.368;2024-01-11T05:34:48;34.28;;;22.25;;
44270;SDS011;29963;44.594;11.368;2024-01-11T05:37:13;31.77;;;22.63;;
44270;SDS011;29963;44.594;11.368;2024-01-11T05:39:39;33.25;;;23.13;;
44270;SDS011;29963;44.594;11.368;2024-01-11T05:42:05;33.25;;;23.50;;
44270;SDS011;29963;44.594;11.368;2024-01-11T05:44:31;34.83;;;21.58;;
44270;SDS011;29963;44.594;11.368;2024-01-11T05:46:57;34.35;;;22.80;;
44270;SDS011;29963;44.594;11.368;2024-01-11T05:49:22;31.80;;;22.58;;
44270;SDS011;29963;44.594;11.368;2024-01-11T05:51:48;33.03;;;22.10;;
44270;SDS011;29963;44.594;11.368;2024-01-11T05:54:14;31.92;;;22.65;;
44270;SDS011;29963;44.594;11.368;2024-01-11T05:56:39;30.45;;;22.27;;
44270;SDS011;29963;44.594;11.368;2024-01-11T05:59:05;34.15;;;22.52;;
44270;SDS011;29963;44.594;11.368;2024-01-11T06:01:30;34.50;;;23.23;;
44270;SDS011;29963;44.594;11.368;2024-01-11T06:03:59;33.15;;;24.08;;
44270;SDS011;29963;44.594;11.368;2024-01-11T06:06:24;29.65;;;23.48;;
44270;SDS011;29963;44.594;11.368;2024-01-11T06:08:50;34.40;;;22.15;;
44270;SDS011;29963;44.594;11.368;2024-01-11T06:11:15;32.13;;;24.08;;
44270;SDS011;29963;44.594;11.368;2024-01-11T06:13:43;35.47;;;22.90;;
44270;SDS011;29963;44.594;11.368;2024-01-11T06:16:08;29.08;;;22.08;;
44270;SDS011;29963;44.594;11.368;2024-01-11T06:18:34;34.33;;;22.85;;
44270;SDS011;29963;44.594;11.368;2024-01-11T06:21:00;37.85;;;23.48;;
44270;SDS011;29963;44.594;11.368;2024-01-11T06:23:25;32.67;;;23.42;;
44270;SDS011;29963;44.594;11.368;2024-01-11T06:25:51;32.70;;;22.60;;
44270;SDS011;29963;44.594;11.368;2024-01-11T06:28:17;33.35;;;22.08;;
44270;SDS011;29963;44.594;11.368;2024-01-11T06:30:42;29.95;;;21.65;;
44270;SDS011;29963;44.594;11.368;2024-01-11T06:33:08;31.65;;;23.05;;
44270;SDS011;29963;44.594;11.368;2024-01-11T06:35:34;33.97;;;22.15;;
44270;SDS011;29963;44.594;11.368;2024-01-11T06:37:59;33.08;;;23.17;;
44270;SDS011;29963;44.594;11.368;2024-01-11T06:40:25;30.80;;;22.08;;
44270;SDS011;29963;44.594;11.368;2024-01-11T06:42:51;28.88;;;21.30;;
44270;SDS011;29963;44.594;11.368;2024-01-11T06:45:17;31.45;;;21.95;;
44270;SDS011;29963;44.594;11.368;2024-01-11T06:47:42;42.85;;;22.45;;
44270;SDS011;29963;44.594;11.368;2024-01-11T06:50:11;29.40;;;20.20;;
44270;SDS011;29963;44.594;11.368;2024-01-11T06:52:37;40.80;;;24.08;;
44270;SDS011;29963;44.594;11.368;2024-01-11T06:55:03;36.35;;;23.50;;
44270;SDS011;29963;44.594;11.368;2024-01-11T06:57:29;38.65;;;23.38;;
44270;SDS011;29963;44.594;11.368;2024-01-11T06:59:55;30.17;;;22.13;;
44270;SDS011;29963;44.594;11.368;2024-01-11T07:02:21;45.28;;;23.60;;
44270;SDS011;29963;44.594;11.368;2024-01-11T07:04:47;32.85;;;23.83;;
44270;SDS011;29963;44.594;11.368;2024-01-11T07:07:12;33.80;;;23.08;;
44270;SDS011;29963;44.594;11.368;2024-01-11T07:09:38;29.80;;;21.13;;
44270;SDS011;29963;44.594;11.368;2024-01-11T07:12:04;31.13;;;23.00;;
44270;SDS011;29963;44.594;11.368;2024-01-11T07:14:30;32.33;;;22.80;;
44270;SDS011;29963;44.594;11.368;2024-01-11T07:16:56;35.95;;;24.35;;
44270;SDS011;29963;44.594;11.368;2024-01-11T07:19:21;35.50;;;23.58;;
44270;SDS011;29963;44.594;11.368;2024-01-11T07:21:47;34.22;;;22.48;;
44270;SDS011;29963;44.594;11.368;2024-01-11T07:24:12;31.80;;;22.38;;
44270;SDS011;29963;44.594;11.368;2024-01-11T07:26:38;32.30;;;23.15;;
44270;SDS011;29963;44.594;11.368;2024-01-11T07:29:05;31.73;;;21.50;;
44270;SDS011;29963;44.594;11.368;2024-01-11T07:31:30;33.85;;;22.33;;
44270;SDS011;29963;44.594;11.368;2024-01-11T07:33:56;29.38;;;21.55;;
44270;SDS011;29963;44.594;11.368;2024-01-11T07:36:21;36.97;;;24.45;;
44270;SDS011;29963;44.594;11.368;2024-01-11T07:38:47;35.60;;;23.08;;
44270;SDS011;29963;44.594;11.368;2024-01-11T07:41:13;30.98;;;22.15;;
44270;SDS011;29963;44.594;11.368;2024-01-11T07:43:39;49.13;;;34.70;;
44270;SDS011;29963;44.594;11.368;2024-01-11T07:46:05;57.53;;;41.70;;
44270;SDS011;29963;44.594;11.368;2024-01-11T07:48:32;46.22;;;36.20;;
44270;SDS011;29963;44.594;11.368;2024-01-11T07:50:58;39.83;;;26.77;;
44270;SDS011;29963;44.594;11.368;2024-01-11T07:53:24;37.85;;;24.55;;
44270;SDS011;29963;44.594;11.368;2024-01-11T07:55:51;39.70;;;24.65;;
44270;SDS011;29963;44.594;11.368;2024-01-11T07:58:16;31.02;;;23.27;;
44270;SDS011;29963;44.594;11.368;2024-01-11T08:00:42;33.92;;;22.65;;
44270;SDS011;29963;44.594;11.368;2024-01-11T08:03:08;32.88;;;22.65;;
44270;SDS011;29963;44.594;11.368;2024-01-11T08:05:34;37.90;;;23.42;;
44270;SDS011;29963;44.594;11.368;2024-01-11T08:08:00;31.50;;;21.60;;
44270;SDS011;29963;44.594;11.368;2024-01-11T08:10:28;35.33;;;23.92;;
44270;SDS011;29963;44.594;11.368;2024-01-11T08:12:53;37.75;;;24.90;;
44270;SDS011;29963;44.594;11.368;2024-01-11T08:15:20;38.85;;;24.52;;
44270;SDS011;29963;44.594;11.368;2024-01-11T08:17:45;40.88;;;25.70;;
44270;SDS011;29963;44.594;11.368;2024-01-11T08:20:11;30.98;;;22.63;;
44270;SDS011;29963;44.594;11.368;2024-01-11T08:22:40;30.85;;;22.33;;
44270;SDS011;29963;44.594;11.368;2024-01-11T08:25:08;34.35;;;22.17;;
44270;SDS011;29963;44.594;11.368;2024-01-11T08:27:34;33.53;;;23.55;;
44270;SDS011;29963;44.594;11.368;2024-01-11T08:30:00;30.98;;;22.75;;
44270;SDS011;29963;44.594;11.368;2024-01-11T08:32:25;30.48;;;21.35;;
44270;SDS011;29963;44.594;11.368;2024-01-11T08:34:51;35.17;;;22.55;;
44270;SDS011;29963;44.594;11.368;2024-01-11T08:37:17;32.95;;;21.40;;
44270;SDS011;29963;44.594;11.368;2024-01-11T08:39:43;35.35;;;22.80;;
44270;SDS011;29963;44.594;11.368;2024-01-11T08:42:08;31.05;;;23.10;;
44270;SDS011;29963;44.594;11.368;2024-01-11T08:44:34;33.78;;;21.88;;
44270;SDS011;29963;44.594;11.368;2024-01-11T08:46:59;36.10;;;22.70;;
44270;SDS011;29963;44.594;11.368;2024-01-11T08:49:25;35.95;;;23.33;;
44270;SDS011;29963;44.594;11.368;2024-01-11T08:51:51;32.03;;;21.63;;
44270;SDS011;29963;44.594;11.368;2024-01-11T08:54:16;32.42;;;22.17;;
44270;SDS011;29963;44.594;11.368;2024-01-11T08:56:45;34.30;;;22.70;;
44270;SDS011;29963;44.594;11.368;2024-01-11T08:59:11;34.53;;;23.45;;
44270;SDS011;29963;44.594;11.368;2024-01-11T09:01:37;30.70;;;21.77;;
44270;SDS011;29963;44.594;11.368;2024-01-11T09:04:02;30.85;;;23.05;;
44270;SDS011;29963;44.594;11.368;2024-01-11T09:06:29;29.63;;;21.48;;
44270;SDS011;29963;44.594;11.368;2024-01-11T09:08:55;32.92;;;22.52;;
44270;SDS011;29963;44.594;11.368;2024-01-11T09:11:23;38.67;;;22.27;;
44270;SDS011;29963;44.594;11.368;2024-01-11T09:13:49;32.83;;;23.23;;
44270;SDS011;29963;44.594;11.368;2024-01-11T09:16:15;30.73;;;23.02;;
44270;SDS011;29963;44.594;11.368;2024-01-11T09:18:42;31.58;;;22.13;;
44270;SDS011;29963;44.594;11.368;2024-01-11T09:21:08;28.20;;;21.65;;
44270;SDS011;29963;44.594;11.368;2024-01-11T09:23:34;31.45;;;23.75;;
44270;SDS011;29963;44.594;11.368;2024-01-11T09:26:00;29.98;;;21.50;;
44270;SDS011;29963;44.594;11.368;2024-01-11T09:28:26;34.42;;;23.73;;
44270;SDS011;29963;44.594;11.368;2024-01-11T09:30:51;30.73;;;21.85;;
44270;SDS011;29963;44.594;11.368;2024-01-11T09:33:17;33.38;;;22.25;;
44270;SDS011;29963;44.594;11.368;2024-01-11T09:35:43;32.22;;;22.88;;
44270;SDS011;29963;44.594;11.368;2024-01-11T09:38:08;36.38;;;24.42;;
44270;SDS011;29963;44.594;11.368;2024-01-11T09:40:34;34.10;;;25.00;;
44270;SDS011;29963;44.594;11.368;2024-01-11T09:43:01;38.78;;;27.45;;
44270;SDS011;29963;44.594;11.368;2024-01-11T09:45:29;38.03;;;25.70;;
44270;SDS011;29963;44.594;11.368;2024-01-11T09:47:55;34.65;;;23.17;;
44270;SDS011;29963;44.594;11.368;2024-01-11T09:50:21;37.00;;;24.23;;
44270;SDS011;29963;44.594;11.368;2024-01-11T09:52:49;33.75;;;23.90;;
44270;SDS011;29963;44.594;11.368;2024-01-11T09:55:16;33.78;;;22.27;;
44270;SDS011;29963;44.594;11.368;2024-01-11T09:57:45;29.80;;;22.25;;
44270;SDS011;29963;44.594;11.368;2024-01-11T10:02:59;28.70;;;21.52;;
44270;SDS011;29963;44.594;11.368;2024-01-11T10:05:24;30.60;;;20.92;;
44270;SDS011;29963;44.594;11.368;2024-01-11T10:07:52;28.85;;;21.63;;
44270;SDS011;29963;44.594;11.368;2024-01-11T10:10:17;31.85;;;21.45;;
44270;SDS011;29963;44.594;11.368;2024-01-11T10:12:43;29.77;;;20.98;;
44270;SDS011;29963;44.594;11.368;2024-01-11T10:15:09;26.17;;;18.83;;
44270;SDS011;29963;44.594;11.368;2024-01-11T10:17:41;30.55;;;20.35;;
44270;SDS011;29963;44.594;11.368;2024-01-11T10:20:09;28.65;;;20.27;;
44270;SDS011;29963;44.594;11.368;2024-01-11T10:22:42;26.17;;;19.23;;
44270;SDS011;29963;44.594;11.368;2024-01-11T10:25:09;30.48;;;19.73;;
44270;SDS011;29963;44.594;11.368;2024-01-11T10:27:42;26.27;;;17.92;;
44270;SDS011;29963;44.594;11.368;2024-01-11T10:30:09;41.72;;;21.05;;
44270;SDS011;29963;44.594;11.368;2024-01-11T10:32:38;25.55;;;19.42;;
44270;SDS011;29963;44.594;11.368;2024-01-11T10:35:04;28.08;;;18.00;;
44270;SDS011;29963;44.594;11.368;2024-01-11T10:37:30;25.27;;;17.85;;
44270;SDS011;29963;44.594;11.368;2024-01-11T10:40:03;28.80;;;19.80;;
44270;SDS011;29963;44.594;11.368;2024-01-11T10:42:35;28.67;;;19.33;;
44270;SDS011;29963;44.594;11.368;2024-01-11T10:45:04;27.33;;;18.85;;
44270;SDS011;29963;44.594;11.368;2024-01-11T10:47:36;27.20;;;19.10;;
44270;SDS011;29963;44.594;11.368;2024-01-11T10:50:03;30.95;;;19.48;;
44270;SDS011;29963;44.594;11.368;2024-01-11T10:52:34;28.35;;;20.23;;
44270;SDS011;29963;44.594;11.368;2024-01-11T10:55:05;26.15;;;18.88;;
44270;SDS011;29963;44.594;11.368;2024-01-11T10:57:31;28.33;;;19.23;;
44270;SDS011;29963;44.594;11.368;2024-01-11T10:59:58;32.22;;;21.80;;
44270;SDS011;29963;44.594;11.368;2024-01-11T11:02:28;28.10;;;19.80;;
44270;SDS011;29963;44.594;11.368;2024-01-11T11:04:54;29.58;;;19.65;;
44270;SDS011;29963;44.594;11.368;2024-01-11T11:07:21;29.85;;;20.75;;
44270;SDS011;29963;44.594;11.368;2024-01-11T11:09:49;30.30;;;20.20;;
44270;SDS011;29963;44.594;11.368;2024-01-11T11:12:17;31.00;;;20.63;;
44270;SDS011;29963;44.594;11.368;2024-01-11T11:14:44;29.77;;;20.60;;
44270;SDS011;29963;44.594;11.368;2024-01-11T11:17:14;30.85;;;22.48;;
44270;SDS011;29963;44.594;11.368;2024-01-11T11:19:40;32.65;;;21.60;;
44270;SDS011;29963;44.594;11.368;2024-01-11T11:22:06;27.73;;;18.73;;
44270;SDS011;29963;44.594;11.368;2024-01-11T11:24:33;28.58;;;21.67;;
44270;SDS011;29963;44.594;11.368;2024-01-11T11:27:00;33.70;;;21.05;;
44270;SDS011;29963;44.594;11.368;2024-01-11T11:29:26;30.50;;;21.23;;
44270;SDS011;29963;44.594;11.368;2024-01-11T11:31:51;27.55;;;21.90;;
44270;SDS011;29963;44.594;11.368;2024-01-11T11:34:39;28.23;;;21.48;;
44270;SDS011;29963;44.594;11.368;2024-01-11T11:37:09;30.00;;;20.60;;
44270;SDS011;29963;44.594;11.368;2024-01-11T11:39:35;29.88;;;21.63;;
44270;SDS011;29963;44.594;11.368;2024-01-11T11:42:01;35.17;;;22.80;;
44270;SDS011;29963;44.594;11.368;2024-01-11T11:44:29;32.75;;;22.27;;
44270;SDS011;29963;44.594;11.368;2024-01-11T11:46:55;29.80;;;20.55;;
44270;SDS011;29963;44.594;11.368;2024-01-11T11:52:46;26.38;;;21.38;;
44270;SDS011;29963;44.594;11.368;2024-01-11T11:55:24;29.83;;;21.52;;
44270;SDS011;29963;44.594;11.368;2024-01-11T11:57:50;27.55;;;21.05;;
44270;SDS011;29963;44.594;11.368;2024-01-11T12:00:17;26.77;;;20.83;;
44270;SDS011;29963;44.594;11.368;2024-01-11T12:02:43;25.15;;;18.38;;
44270;SDS011;29963;44.594;11.368;2024-01-11T12:05:09;23.25;;;18.15;;
44270;SDS011;29963;44.594;11.368;2024-01-11T12:07:34;26.33;;;19.55;;
44270;SDS011;29963;44.594;11.368;2024-01-11T12:10:00;26.05;;;19.95;;
44270;SDS011;29963;44.594;11.368;2024-01-11T12:12:26;22.80;;;17.65;;
44270;SDS011;29963;44.594;11.368;2024-01-11T12:14:53;24.52;;;17.35;;
44270;SDS011;29963;44.594;11.368;2024-01-11T12:17:19;24.98;;;17.95;;
44270;SDS011;29963;44.594;11.368;2024-01-11T12:19:47;24.95;;;18.25;;
44270;SDS011;29963;44.594;11.368;2024-01-11T12:22:13;22.83;;;16.65;;
44270;SDS011;29963;44.594;11.368;2024-01-11T12:24:39;25.67;;;18.67;;
44270;SDS011;29963;44.594;11.368;2024-01-11T12:27:04;23.17;;;16.50;;
44270;SDS011;29963;44.594;11.368;2024-01-11T12:29:30;23.50;;;18.17;;
44270;SDS011;29963;44.594;11.368;2024-01-11T12:31:59;22.90;;;16.88;;
44270;SDS011;29963;44.594;11.368;2024-01-11T12:34:25;21.42;;;17.80;;
44270;SDS011;29963;44.594;11.368;2024-01-11T12:36:52;23.42;;;17.52;;
44270;SDS011;29963;44.594;11.368;2024-01-11T12:39:19;24.58;;;17.17;;
44270;SDS011;29963;44.594;11.368;2024-01-11T12:41:47;25.13;;;17.15;;
44270;SDS011;29963;44.594;11.368;2024-01-11T12:44:14;26.30;;;17.77;;
44270;SDS011;29963;44.594;11.368;2024-01-11T12:46:42;26.63;;;20.75;;
44270;SDS011;29963;44.594;11.368;2024-01-11T12:49:09;26.13;;;18.98;;
44270;SDS011;29963;44.594;11.368;2024-01-11T12:51:35;23.20;;;18.05;;
44270;SDS011;29963;44.594;11.368;2024-01-11T12:54:01;27.95;;;18.83;;
44270;SDS011;29963;44.594;11.368;2024-01-11T12:56:29;23.65;;;17.60;;
44270;SDS011;29963;44.594;11.368;2024-01-11T12:59:04;19.85;;;16.50;;
44270;SDS011;29963;44.594;11.368;2024-01-11T13:01:31;22.70;;;16.65;;
44270;SDS011;29963;44.594;11.368;2024-01-11T13:03:57;24.23;;;18.35;;
44270;SDS011;29963;44.594;11.368;2024-01-11T13:06:23;24.27;;;17.40;;
44270;SDS011;29963;44.594;11.368;2024-01-11T13:08:50;22.10;;;16.13;;
44270;SDS011;29963;44.594;11.368;2024-01-11T13:11:16;26.92;;;16.23;;
44270;SDS011;29963;44.594;11.368;2024-01-11T13:13:42;22.60;;;16.20;;
44270;SDS011;29963;44.594;11.368;2024-01-11T13:16:10;24.58;;;16.35;;
44270;SDS011;29963;44.594;11.368;2024-01-11T13:18:39;24.13;;;16.25;;
44270;SDS011;29963;44.594;11.368;2024-01-11T13:21:05;22.55;;;18.10;;
44270;SDS011;29963;44.594;11.368;2024-01-11T13:23:34;22.50;;;17.38;;
44270;SDS011;29963;44.594;11.368;2024-01-11T13:26:02;21.77;;;17.67;;
44270;SDS011;29963;44.594;11.368;2024-01-11T13:28:29;21.50;;;15.45;;
44270;SDS011;29963;44.594;11.368;2024-01-11T13:30:55;18.33;;;14.82;;
44270;SDS011;29963;44.594;11.368;2024-01-11T13:33:21;20.45;;;15.45;;
44270;SDS011;29963;44.594;11.368;2024-01-11T13:35:48;22.90;;;16.75;;
44270;SDS011;29963;44.594;11.368;2024-01-11T13:38:14;25.83;;;17.80;;
44270;SDS011;29963;44.594;11.368;2024-01-11T13:40:40;22.25;;;16.35;;
44270;SDS011;29963;44.594;11.368;2024-01-11T13:43:08;20.90;;;16.40;;
44270;SDS011;29963;44.594;11.368;2024-01-11T13:45:36;21.10;;;14.85;;
44270;SDS011;29963;44.594;11.368;2024-01-11T13:48:02;20.45;;;16.48;;
44270;SDS011;29963;44.594;11.368;2024-01-11T13:50:29;19.60;;;15.20;;
44270;SDS011;29963;44.594;11.368;2024-01-11T13:52:54;22.65;;;15.73;;
44270;SDS011;29963;44.594;11.368;2024-01-11T13:55:20;20.08;;;16.58;;
44270;SDS011;29963;44.594;11.368;2024-01-11T13:57:46;20.00;;;15.73;;
44270;SDS011;29963;44.594;11.368;2024-01-11T14:00:12;18.92;;;15.48;;
44270;SDS011;29963;44.594;11.368;2024-01-11T14:02:38;19.65;;;15.55;;
44270;SDS011;29963;44.594;11.368;2024-01-11T14:05:06;19.63;;;15.18;;
44270;SDS011;29963;44.594;11.368;2024-01-11T14:07:36;18.60;;;15.57;;
44270;SDS011;29963;44.594;11.368;2024-01-11T14:10:02;19.85;;;14.48;;
44270;SDS011;29963;44.594;11.368;2024-01-11T14:12:28;32.08;;;22.63;;